Alfarata, Pennsylvania
Current Conditions -  °F | °C
As of 11:15 PM on Friday 31 Oct 2014 (Local Time) from KUNV Reporting Station
Overcast Overcast  
Wind Chill: 40°   Ceiling: 5500
Heat Index: 42°   Visibility: 10mi
Dew Point: 34°   Wind: 5mph
Humidity: 72%   Direction: 30°NNE
Pressure: 29.88"   Gusts: NA
Location:  40.7125°N, 77.3707°W
Report Text: KUNV 010315Z AUTO 03004KT 10SM OVC055 06/01 A2988 RMK AO2 T00580011
Loading
Personal Weather Stations






























Interactive Weather Map
Tropical Storm Tracking
New forecast layout! Learn more

10-Day Weather Forecast

Advertisements
Track Severe Weather on mobile